Bei Facebook empfehlenBei Twitter postenGoogle plusPinterest

Das Wetter im Erzgebirge am 26.12.2015

Wetter und Klima am 26.12.2015 Holzhau im Erzgebirge (630m ü.NN)
Letzte gemessene Temperatur und Uhrzeit der Messung23:45:00 Uhr4.40 °C
Temperatur (Maximum / Höchstwert) und Uhrzeit der Messung14:00:00 Uhr13.10 °C
Temperatur (Minimum / Tiefstwert) und Uhrzeit der Messung23:15:004.20 °C
Errechneter Absolutwert der Temperaturschwankungen zwischen Tmin und Tmax des Tages8.90 K
Errechnete Tagesmitteltemperatur9.26979 °C
Gesamt - Niederschlag des Tages (in flüssiger Form)0.00 Liter / m²
Luftdruck (Maximum / Höchstwert) und Zeitpunkt der Messung23:15:00 Uhr1023.50 hPa
Luftdruck (Minimum / Tiefstwert) und Zeitpunkt der Messung16:30:00 Uhr1022.10 hPa
Errechneter Absolutwert der Luftdruckschwankungen des Tages1.40 hPa
Höchste gemessene Windgeschwindigkeit und Uhrzeit der Messung11:45:00 Uhr24.84 km/h
Errechnete Windhäufigkeit in Relation zu den Messwerten des Tages54.16667 %
Niedrigste Windkühle (Windchill) und Zeitpunkt der Messung23:15:00 Uhr4.20 °C
Taupunkt (Maximum / Höchstwert) und Uhrzeit der Messung13:30:00 Uhr9.00 °C
Taupunkt (Minimum / Tiefstwert) und Uhrzeit der Messung22:45:002.60 °C
Anzahl der automatisch eingelesenen Messwerte 96

Detaillierte Wetter- und Klima- Messwerte für den 26.12.2015 in Holzhau im Erzgebirge (630m ü.NN)
ZeitTemperaturLuftdruckRel. LuftfeuchteWindWindrichtungWindchillTaupunktNiederschlag l/m²
23:45:004.40 °C1023.30 hPa90.00 %2.90 °C 
23:30:004.30 °C1023.30 hPa90.00 %2.80 °C 
23:15:004.20 °C1023.50 hPa90.00 %2.70 °C 
23:00:004.30 °C1023.40 hPa89.00 %2.70 °C 
22:45:004.20 °C1023.10 hPa89.00 %2.60 °C 
22:30:004.40 °C1023.10 hPa88.00 %2.60 °C 
22:15:004.90 °C1023.00 hPa88.00 %3.10 °C 
22:00:005.20 °C1023.10 hPa88.00 %3.40 °C 
21:45:005.60 °C1023.10 hPa87.00 %3.60 °C 
21:30:005.90 °C1023.10 hPa87.00 %3.90 °C 
21:15:006.30 °C1022.90 hPa87.00 %4.30 °C 
21:00:006.80 °C1022.80 hPa86.00 %4.60 °C 
20:45:007.20 °C1022.80 hPa86.00 %5.00 °C 
20:30:007.30 °C1022.80 hPa85.00 %5.00 °C 
20:15:007.70 °C1022.80 hPa85.00 %5.30 °C 
20:00:007.90 °C1022.90 hPa84.00 %3.24 km/hSSW7.90 °C5.40 °C 
19:45:008.10 °C1022.80 hPa84.00 %6.12 km/hW7.30 °C5.60 °C 
19:30:008.30 °C1022.90 hPa83.00 %5.60 °C 
19:15:008.50 °C1022.60 hPa84.00 %6.00 °C 
19:00:008.70 °C1022.40 hPa83.00 %6.00 °C 
18:45:008.80 °C1022.30 hPa82.00 %9.36 km/hWSW7.30 °C5.90 °C 
18:30:008.90 °C1022.40 hPa82.00 %6.00 °C 
18:15:009.00 °C1022.60 hPa81.00 %5.90 °C 
18:00:009.30 °C1022.60 hPa81.00 %6.20 °C 
17:45:009.50 °C1022.60 hPa80.00 %6.20 °C 
17:30:009.60 °C1022.40 hPa80.00 %11.16 km/hSW8.00 °C6.30 °C 
17:15:009.80 °C1022.30 hPa80.00 %6.50 °C 
17:00:0010.10 °C1022.30 hPa79.00 %3.96 km/hW10.10 °C6.60 °C 
16:45:0010.30 °C1022.20 hPa79.00 %7.56 km/hWNW9.50 °C6.80 °C 
16:30:0010.50 °C1022.10 hPa79.00 %2.88 km/hW10.50 °C7.00 °C 
16:15:0010.50 °C1022.20 hPa79.00 %7.00 °C 
16:00:0010.70 °C1022.30 hPa78.00 %2.88 km/hW10.70 °C7.00 °C 
15:45:0010.90 °C1022.30 hPa77.00 %7.00 °C 
15:30:0011.30 °C1022.30 hPa76.00 %9.36 km/hWNW10.30 °C7.20 °C 
15:15:0011.60 °C1022.30 hPa76.00 %7.50 °C 
15:00:0012.30 °C1022.30 hPa74.00 %7.80 °C 
14:45:0012.70 °C1022.50 hPa74.00 %3.96 km/hW12.70 °C8.20 °C 
14:30:0012.90 °C1022.50 hPa74.00 %2.16 km/hW12.90 °C8.40 °C 
14:15:0013.00 °C1022.70 hPa74.00 %5.76 km/hWNW13.00 °C8.50 °C 
14:00:0013.10 °C1022.40 hPa75.00 %9.00 km/hNW12.50 °C8.80 °C 
13:45:0013.00 °C1022.40 hPa75.00 %8.70 °C 
13:30:0013.10 °C1022.50 hPa76.00 %6.48 km/hWNW12.90 °C9.00 °C 
13:15:0012.90 °C1022.50 hPa76.00 %2.88 km/hWSW12.90 °C8.80 °C 
13:00:0012.60 °C1022.50 hPa77.00 %2.52 km/hNW12.60 °C8.70 °C 
12:45:0012.50 °C1022.60 hPa77.00 %16.56 km/hW10.80 °C8.60 °C 
12:30:0012.30 °C1022.80 hPa78.00 %12.60 km/hWSW11.00 °C8.60 °C 
12:15:0011.90 °C1022.90 hPa78.00 %14.76 km/hWSW10.30 °C8.20 °C 
12:00:0012.10 °C1022.80 hPa79.00 %9.00 km/hNNW11.30 °C8.60 °C 
11:45:0012.30 °C1022.80 hPa79.00 %24.84 km/hWNW9.90 °C8.80 °C 
11:30:0012.10 °C1022.80 hPa81.00 %8.64 km/hWSW11.40 °C8.90 °C 
11:15:0011.50 °C1022.80 hPa82.00 %6.48 km/hWNW11.10 °C8.50 °C 
11:00:0011.10 °C1022.90 hPa83.00 %9.72 km/hW10.00 °C8.30 °C 
10:45:0010.90 °C1022.90 hPa84.00 %3.24 km/hW10.90 °C8.30 °C 
10:30:0010.60 °C1022.90 hPa85.00 %8.20 °C 
10:15:0010.40 °C1022.90 hPa85.00 %13.68 km/hWNW8.60 °C8.00 °C 
10:00:0010.10 °C1023.00 hPa86.00 %3.96 km/hSW10.10 °C7.90 °C 
09:45:009.90 °C1022.60 hPa86.00 %5.76 km/hNW9.40 °C7.70 °C 
09:30:009.80 °C1022.70 hPa87.00 %4.32 km/hW9.80 °C7.70 °C 
09:15:009.80 °C1022.80 hPa87.00 %7.70 °C 
09:00:009.90 °C1022.50 hPa87.00 %4.68 km/hWSW9.90 °C7.80 °C 
08:45:009.90 °C1022.60 hPa88.00 %8.00 °C 
08:30:009.60 °C1022.40 hPa88.00 %7.56 km/hNW8.60 °C7.70 °C 
08:15:009.30 °C1022.30 hPa88.00 %3.96 km/hWNW9.30 °C7.40 °C 
08:00:009.20 °C1022.40 hPa88.00 %3.24 km/hWSW9.20 °C7.30 °C 
07:45:009.30 °C1022.30 hPa87.00 %5.76 km/hW8.70 °C7.30 °C 
07:30:009.30 °C1022.30 hPa87.00 %7.20 km/hWSW8.40 °C7.30 °C 
07:15:009.30 °C1022.40 hPa87.00 %6.12 km/hWNW8.60 °C7.30 °C 
07:00:009.30 °C1022.80 hPa87.00 %7.30 °C 
06:45:009.40 °C1022.70 hPa87.00 %6.48 km/hWNW8.70 °C7.30 °C 
06:30:009.40 °C1022.60 hPa87.00 %4.32 km/hWSW9.40 °C7.30 °C 
06:15:009.50 °C1022.80 hPa87.00 %5.76 km/hNW9.00 °C7.40 °C 
06:00:009.60 °C1022.40 hPa87.00 %6.48 km/hSW8.90 °C7.50 °C 
05:45:009.60 °C1022.60 hPa87.00 %9.72 km/hNNW8.20 °C7.50 °C 
05:30:009.60 °C1022.40 hPa87.00 %10.08 km/hWNW8.10 °C7.50 °C 
05:15:009.80 °C1022.30 hPa88.00 %5.04 km/hW9.50 °C7.90 °C 
05:00:009.60 °C1022.20 hPa89.00 %12.96 km/hSSW7.70 °C7.90 °C 
04:45:009.50 °C1022.40 hPa89.00 %1.44 km/hWNW9.50 °C7.80 °C 
04:30:009.30 °C1022.70 hPa90.00 %5.40 km/hWNW8.80 °C7.70 °C 
04:15:009.30 °C1022.80 hPa90.00 %3.60 km/hNW9.30 °C7.70 °C 
04:00:009.10 °C1023.00 hPa91.00 %2.16 km/hW9.10 °C7.70 °C 
03:45:008.70 °C1022.90 hPa91.00 %16.92 km/hWNW6.10 °C7.30 °C 
03:30:008.10 °C1022.70 hPa91.00 %10.80 km/hW6.20 °C6.70 °C 
03:15:007.90 °C1022.60 hPa91.00 %6.50 °C 
03:00:007.90 °C1022.40 hPa91.00 %6.50 °C 
02:45:007.90 °C1022.40 hPa91.00 %6.50 °C 
02:30:008.10 °C1022.70 hPa91.00 %6.70 °C 
02:15:008.00 °C1022.50 hPa90.00 %6.50 °C 
02:00:008.00 °C1022.60 hPa90.00 %6.50 °C 
01:45:007.90 °C1022.70 hPa89.00 %6.20 °C 
01:30:008.10 °C1022.50 hPa89.00 %1.80 km/hSSW8.10 °C6.40 °C 
01:15:008.40 °C1022.80 hPa89.00 %6.70 °C 
01:00:008.50 °C1022.80 hPa89.00 %6.80 °C 
00:45:008.60 °C1023.00 hPa88.00 %6.70 °C 
00:30:008.70 °C1023.10 hPa88.00 %6.80 °C 
00:15:009.10 °C1023.00 hPa88.00 %3.96 km/hNW9.10 °C7.20 °C 
00:00:009.30 °C1023.00 hPa88.00 %7.40 °C 

Permanenter Link zu dieser Seite: Wetter im Erzgebirge am 26.12.2015
Performance-Info: Die Erstellung der Seite / Statistik(en) / Tabelle(n) erforderte 5 Datenbankserver-Abfrage(n) und dauerte 101 Millisekunden. (Dieser Messwert ist von der Gesamt-Auslastung des Servers abhängig.)
Erzgebirge - Wetter | Erzgebirge - Wetter (Mobilgeräte) | Komplette Klimadatenbank